createdAt,value
2022-10-25T00:01:30.029Z,11.90
2022-10-25T00:03:57.046Z,11.80
2022-10-25T00:06:24.028Z,11.80
2022-10-25T00:08:50.984Z,11.80
2022-10-25T00:11:20.888Z,11.80
2022-10-25T00:13:51.709Z,11.70
2022-10-25T00:16:21.084Z,13.10
2022-10-25T00:18:48.063Z,11.60
2022-10-25T00:21:14.926Z,11.70
2022-10-25T00:23:41.831Z,11.70
2022-10-25T00:26:09.431Z,11.70
2022-10-25T00:28:36.365Z,11.70
2022-10-25T00:31:11.352Z,11.70
2022-10-25T00:33:38.535Z,13.90
2022-10-25T00:36:16.691Z,11.70
2022-10-25T00:38:44.797Z,11.60
2022-10-25T00:41:13.013Z,11.60
2022-10-25T00:43:44.686Z,11.60
2022-10-25T00:46:21.105Z,11.50
2022-10-25T00:48:53.694Z,11.40
2022-10-25T00:51:21.973Z,11.40
2022-10-25T00:53:48.819Z,11.40
2022-10-25T00:56:23.841Z,11.40
2022-10-25T00:58:52.131Z,12.10
2022-10-25T01:01:19.094Z,11.30
2022-10-25T01:03:46.567Z,12.10
2022-10-25T01:06:21.861Z,11.20
2022-10-25T01:08:48.819Z,12.30
2022-10-25T01:13:47.732Z,11.50
2022-10-25T01:16:43.444Z,13.50
2022-10-25T01:19:19.204Z,11.10
2022-10-25T01:21:48.173Z,11.00
2022-10-25T01:24:37.535Z,13.60
2022-10-25T01:27:31.918Z,10.90
2022-10-25T01:30:14.120Z,10.90
2022-10-25T01:33:01.967Z,10.80
2022-10-25T01:35:31.422Z,10.80
2022-10-25T01:38:32.193Z,10.80
2022-10-25T01:41:19.777Z,10.70
2022-10-25T01:44:23.961Z,12.10
2022-10-25T01:46:52.359Z,10.50
2022-10-25T01:49:26.699Z,10.60
2022-10-25T01:51:53.603Z,10.60
2022-10-25T01:54:27.924Z,10.50
2022-10-25T01:57:14.089Z,10.50
2022-10-25T01:59:44.046Z,10.40
2022-10-25T02:02:31.149Z,10.50
2022-10-25T02:05:01.726Z,11.00
2022-10-25T02:07:38.080Z,10.40
2022-10-25T02:10:09.122Z,10.40
2022-10-25T02:12:56.961Z,10.40
2022-10-25T02:15:52.800Z,13.00
2022-10-25T02:18:21.870Z,13.20
2022-10-25T02:20:48.761Z,12.80
2022-10-25T02:23:15.661Z,11.60
2022-10-25T02:25:42.626Z,12.80
2022-10-25T02:28:10.908Z,10.30
2022-10-25T02:30:37.760Z,12.40
2022-10-25T02:33:04.676Z,11.10
2022-10-25T02:35:31.860Z,10.90
2022-10-25T02:37:58.722Z,10.20
2022-10-25T02:40:25.624Z,13.30
2022-10-25T02:42:52.607Z,10.20
2022-10-25T02:45:19.493Z,11.50
2022-10-25T02:47:46.594Z,11.70
2022-10-25T02:50:13.633Z,10.10
2022-10-25T02:52:40.495Z,10.20
2022-10-25T02:55:07.732Z,10.00
2022-10-25T02:57:35.472Z,12.50
2022-10-25T03:00:03.101Z,10.30
2022-10-25T03:02:29.977Z,12.30
2022-10-25T03:04:56.867Z,11.60
2022-10-25T03:07:23.743Z,12.50
2022-10-25T03:09:50.604Z,12.40
2022-10-25T03:12:17.526Z,11.90
2022-10-25T03:14:44.381Z,10.60
2022-10-25T03:17:11.254Z,10.80
2022-10-25T03:19:38.144Z,10.80
2022-10-25T03:22:04.994Z,10.90
2022-10-25T03:24:31.877Z,11.60
2022-10-25T03:26:58.708Z,12.70
2022-10-25T03:29:25.860Z,10.90
2022-10-25T03:31:52.707Z,10.80
2022-10-25T03:34:19.562Z,10.00
2022-10-25T03:36:46.438Z,10.00
2022-10-25T03:39:13.375Z,11.80
2022-10-25T03:41:40.247Z,10.00
2022-10-25T03:44:07.112Z,11.80
2022-10-25T03:46:34.075Z,11.60
2022-10-25T03:49:00.964Z,9.90
2022-10-25T03:51:27.895Z,11.40
2022-10-25T03:53:54.751Z,12.70
2022-10-25T03:56:21.601Z,12.10
2022-10-25T03:58:48.454Z,10.90
2022-10-25T04:01:15.506Z,11.70
2022-10-25T04:03:45.210Z,12.40
2022-10-25T04:06:12.174Z,11.20
2022-10-25T04:08:39.244Z,13.00
2022-10-25T04:11:06.126Z,11.10
2022-10-25T04:13:32.957Z,9.90
2022-10-25T04:15:59.876Z,10.80
2022-10-25T04:18:26.734Z,10.90
2022-10-25T04:20:53.661Z,12.40
2022-10-25T04:23:20.602Z,9.90
2022-10-25T04:25:47.497Z,11.60
2022-10-25T04:28:14.388Z,11.80
2022-10-25T04:30:41.367Z,10.20
2022-10-25T04:33:08.476Z,11.60
2022-10-25T04:35:35.383Z,9.80
2022-10-25T04:38:02.241Z,12.10
2022-10-25T04:40:29.132Z,11.10
2022-10-25T04:42:56.624Z,9.80
2022-10-25T04:45:23.497Z,9.80
2022-10-25T04:47:50.365Z,11.20
2022-10-25T04:50:17.250Z,11.90
2022-10-25T04:52:44.350Z,9.80
2022-10-25T04:55:11.256Z,9.80
2022-10-25T04:57:38.165Z,12.00
2022-10-25T05:00:05.419Z,12.00
2022-10-25T05:02:32.412Z,9.80
2022-10-25T05:04:59.456Z,9.80
2022-10-25T05:07:26.378Z,12.30
2022-10-25T05:09:53.229Z,9.80
2022-10-25T05:12:20.102Z,10.20
2022-10-25T05:14:47.090Z,10.80
2022-10-25T05:17:13.968Z,10.00
2022-10-25T05:19:40.807Z,11.30
2022-10-25T05:22:07.674Z,11.20
2022-10-25T05:24:34.638Z,11.40
2022-10-25T05:27:01.500Z,10.50
2022-10-25T05:29:28.463Z,12.40
2022-10-25T05:31:55.526Z,9.80
2022-10-25T05:34:22.730Z,9.80
2022-10-25T05:36:49.861Z,9.70
2022-10-25T05:39:16.757Z,12.60
2022-10-25T05:41:43.636Z,12.20
2022-10-25T05:44:10.561Z,9.70
2022-10-25T05:46:37.455Z,12.20
2022-10-25T05:49:04.301Z,10.30
2022-10-25T05:51:36.680Z,9.80
2022-10-25T05:54:13.524Z,11.40
2022-10-25T05:56:40.711Z,11.00
2022-10-25T05:59:09.693Z,12.20
2022-10-25T06:01:37.977Z,9.80
2022-10-25T06:04:05.178Z,10.90
2022-10-25T06:06:32.163Z,9.80
2022-10-25T06:08:59.959Z,12.30
2022-10-25T06:11:27.054Z,9.80
2022-10-25T06:13:53.934Z,11.90
2022-10-25T06:16:21.016Z,9.80
2022-10-25T06:18:48.008Z,9.80
2022-10-25T06:21:22.568Z,8.00
2022-10-25T06:23:49.569Z,9.70
2022-10-25T06:26:20.885Z,10.40
2022-10-25T06:28:47.839Z,12.10
2022-10-25T06:31:16.243Z,10.00
2022-10-25T06:33:43.384Z,9.80
2022-10-25T06:36:13.498Z,10.00
2022-10-25T06:38:40.373Z,11.70
2022-10-25T06:41:09.712Z,12.60
2022-10-25T06:43:36.563Z,9.80
2022-10-25T06:46:27.362Z,9.90
2022-10-25T06:48:55.225Z,9.90
2022-10-25T06:51:22.494Z,11.30
2022-10-25T06:53:56.915Z,11.90
2022-10-25T06:56:23.926Z,9.80
2022-10-25T06:58:50.886Z,9.90
2022-10-25T07:01:18.814Z,12.80
2022-10-25T07:03:46.335Z,11.60
2022-10-25T07:06:14.823Z,9.90
2022-10-25T07:08:43.256Z,11.70
2022-10-25T07:11:16.329Z,9.90
2022-10-25T07:13:43.301Z,11.60
2022-10-25T07:16:11.821Z,10.80
2022-10-25T07:18:38.761Z,10.90
2022-10-25T07:21:07.343Z,10.10
2022-10-25T07:23:34.265Z,10.00
2022-10-25T07:26:01.127Z,10.10
2022-10-25T07:28:27.995Z,10.40
2022-10-25T07:30:54.949Z,10.10
2022-10-25T07:33:21.977Z,10.10
2022-10-25T07:36:06.311Z,8.70
2022-10-25T07:38:36.481Z,10.20
2022-10-25T07:41:03.526Z,10.20
2022-10-25T07:43:30.523Z,10.20
2022-10-25T07:45:57.420Z,10.30
2022-10-25T07:48:24.389Z,11.30
2022-10-25T07:50:51.325Z,10.60
2022-10-25T07:53:18.470Z,10.50
2022-10-25T07:55:54.860Z,10.60
2022-10-25T07:58:21.800Z,10.70
2022-10-25T08:00:48.754Z,10.90
2022-10-25T08:03:16.449Z,10.90
2022-10-25T08:05:44.714Z,11.00
2022-10-25T08:08:12.394Z,11.20
2022-10-25T08:10:39.324Z,11.40
2022-10-25T08:13:06.201Z,11.60
2022-10-25T08:15:33.143Z,11.80
2022-10-25T08:18:00.516Z,12.60
2022-10-25T08:20:43.326Z,12.20
2022-10-25T08:23:14.673Z,12.40
2022-10-25T08:25:41.682Z,13.20
2022-10-25T08:28:08.564Z,12.70
2022-10-25T08:30:35.532Z,12.80
2022-10-25T08:33:02.491Z,12.90
2022-10-25T08:35:29.460Z,13.10
2022-10-25T08:37:56.321Z,13.20
2022-10-25T08:40:56.160Z,13.40
2022-10-25T08:44:05.693Z,13.50
2022-10-25T08:46:52.227Z,13.60
2022-10-25T08:49:33.308Z,13.80
2022-10-25T08:52:00.421Z,14.00
2022-10-25T08:54:33.529Z,14.00
2022-10-25T08:57:16.226Z,14.10
2022-10-25T08:59:45.291Z,14.30
2022-10-25T09:02:37.310Z,14.40
2022-10-25T09:05:04.894Z,14.50
2022-10-25T09:08:09.538Z,14.70
2022-10-25T09:10:48.766Z,14.80
2022-10-25T09:13:31.579Z,14.80
2022-10-25T09:16:18.433Z,15.00
2022-10-25T09:18:54.150Z,15.10
2022-10-25T09:21:30.062Z,15.30
2022-10-25T09:23:59.210Z,15.30
2022-10-25T09:26:38.138Z,15.40
2022-10-25T09:29:14.220Z,15.40
2022-10-25T09:31:44.566Z,15.50
2022-10-25T09:34:11.489Z,15.60
2022-10-25T09:36:44.360Z,15.60
2022-10-25T09:39:29.619Z,15.70
2022-10-25T09:41:56.553Z,15.70
2022-10-25T09:44:43.024Z,15.80
2022-10-25T09:47:37.691Z,15.80
2022-10-25T09:50:07.066Z,15.90
2022-10-25T09:52:45.841Z,15.80
2022-10-25T09:55:29.805Z,15.80
2022-10-25T09:57:56.959Z,14.40
2022-10-25T10:00:23.866Z,15.90
2022-10-25T10:02:50.991Z,15.90
2022-10-25T10:05:20.359Z,15.90
2022-10-25T10:07:48.174Z,15.90
2022-10-25T10:10:24.313Z,15.90
2022-10-25T10:13:04.842Z,15.90
2022-10-25T10:15:36.144Z,15.90
2022-10-25T10:18:31.529Z,16.00
2022-10-25T10:21:19.163Z,16.00
2022-10-25T10:23:54.251Z,16.00
2022-10-25T10:26:22.611Z,16.00
2022-10-25T10:28:52.352Z,16.10
2022-10-25T10:31:19.601Z,16.10
2022-10-25T10:33:50.384Z,16.00
2022-10-25T10:36:24.635Z,16.10
2022-10-25T10:38:51.743Z,16.10
2022-10-25T10:41:24.670Z,16.10
2022-10-25T10:43:52.068Z,16.20
2022-10-25T10:46:24.789Z,16.30
2022-10-25T10:48:56.123Z,16.30
2022-10-25T10:51:44.435Z,16.40
2022-10-25T10:54:36.680Z,16.40
2022-10-25T10:57:04.753Z,16.40
2022-10-25T10:59:44.838Z,16.50
2022-10-25T11:03:03.534Z,16.50
2022-10-25T11:05:35.204Z,16.50
2022-10-25T11:09:24.188Z,17.30
2022-10-25T11:12:09.322Z,16.60
2022-10-25T11:14:36.190Z,16.60
2022-10-25T11:17:12.745Z,19.40
2022-10-25T11:20:12.970Z,16.70
2022-10-25T11:22:51.915Z,16.60
2022-10-25T11:25:25.520Z,16.70
2022-10-25T11:27:56.738Z,16.70
2022-10-25T11:30:23.949Z,19.40
2022-10-25T11:33:22.073Z,16.80
2022-10-25T11:35:48.976Z,16.80
2022-10-25T11:38:18.127Z,16.80
2022-10-25T11:40:52.936Z,16.80
2022-10-25T11:43:52.035Z,16.80
2022-10-25T11:46:40.799Z,17.60
2022-10-25T11:49:17.239Z,16.80
2022-10-25T11:52:00.189Z,16.80
2022-10-25T11:54:36.069Z,16.90
2022-10-25T11:57:29.802Z,16.90
2022-10-25T12:00:17.469Z,16.90
2022-10-25T12:02:55.655Z,16.90
2022-10-25T12:05:37.905Z,16.90
2022-10-25T12:08:13.239Z,16.80
2022-10-25T12:10:42.993Z,16.90
2022-10-25T12:13:13.851Z,17.00
2022-10-25T12:15:43.240Z,16.90
2022-10-25T12:18:26.044Z,16.90
2022-10-25T12:20:53.316Z,16.90
2022-10-25T12:23:22.250Z,17.00
2022-10-25T12:25:58.712Z,17.00
2022-10-25T12:28:50.206Z,17.00
2022-10-25T12:31:25.420Z,17.00
2022-10-25T12:34:18.771Z,16.90
2022-10-25T12:36:47.962Z,17.00
2022-10-25T12:39:38.539Z,17.00
2022-10-25T12:42:09.777Z,17.00
2022-10-25T12:44:39.505Z,17.00
2022-10-25T12:47:24.539Z,17.00
2022-10-25T12:50:13.131Z,17.00
2022-10-25T12:53:06.104Z,17.00
2022-10-25T12:55:56.725Z,17.00
2022-10-25T12:59:02.820Z,17.00
2022-10-25T13:01:51.740Z,17.00
2022-10-25T13:04:52.370Z,17.00
2022-10-25T13:07:19.297Z,16.90
2022-10-25T13:09:46.345Z,17.00
2022-10-25T13:12:20.172Z,16.90
2022-10-25T13:14:50.686Z,16.90
2022-10-25T13:17:20.278Z,16.80
2022-10-25T13:19:55.050Z,16.70
2022-10-25T13:22:35.699Z,16.70
2022-10-25T13:25:14.083Z,16.60
2022-10-25T13:28:15.893Z,16.50
2022-10-25T13:30:43.700Z,16.50
2022-10-25T13:33:17.510Z,16.60
2022-10-25T13:35:44.429Z,16.60
2022-10-25T13:38:14.792Z,16.50
2022-10-25T13:40:41.710Z,16.60
2022-10-25T13:43:19.273Z,18.30
2022-10-25T13:45:53.631Z,16.40
2022-10-25T13:48:40.806Z,16.40
2022-10-25T13:51:11.571Z,16.30
2022-10-25T13:53:45.337Z,16.20
2022-10-25T13:56:17.356Z,16.10
2022-10-25T13:58:46.878Z,16.10
2022-10-25T14:01:17.142Z,16.00
2022-10-25T14:03:56.857Z,15.90
2022-10-25T14:06:24.862Z,15.90
2022-10-25T14:08:53.698Z,15.90
2022-10-25T14:11:32.911Z,14.40
2022-10-25T14:14:22.759Z,15.80
2022-10-25T14:17:10.896Z,15.80
2022-10-25T14:19:45.518Z,15.90
2022-10-25T14:22:35.552Z,15.80
2022-10-25T14:25:20.230Z,15.80
2022-10-25T14:27:47.181Z,15.90
2022-10-25T14:30:28.236Z,15.90
2022-10-25T14:33:03.754Z,15.80
2022-10-25T14:35:45.423Z,15.80
2022-10-25T14:38:20.119Z,15.80
2022-10-25T14:40:54.168Z,15.70
2022-10-25T14:43:34.046Z,15.70
2022-10-25T14:46:20.863Z,15.60
2022-10-25T14:48:48.486Z,15.50
2022-10-25T14:51:30.649Z,15.50
2022-10-25T14:54:05.725Z,15.50
2022-10-25T14:56:35.205Z,15.40
2022-10-25T14:59:02.309Z,15.30
2022-10-25T15:01:29.446Z,15.20
2022-10-25T15:03:58.167Z,15.20
2022-10-25T15:06:27.075Z,15.00
2022-10-25T15:09:37.408Z,15.00
2022-10-25T15:12:13.024Z,14.90
2022-10-25T15:14:39.915Z,14.80
2022-10-25T15:17:23.538Z,14.80
2022-10-25T15:20:16.909Z,14.70
2022-10-25T15:22:45.493Z,14.70
2022-10-25T15:25:27.860Z,14.60
2022-10-25T15:27:54.862Z,14.50
2022-10-25T15:30:37.228Z,14.50
2022-10-25T15:33:05.983Z,14.50
2022-10-25T15:35:33.006Z,14.40
2022-10-25T15:37:59.894Z,14.40
2022-10-25T15:40:26.827Z,14.30
2022-10-25T15:42:53.734Z,14.20
2022-10-25T15:45:20.597Z,14.30
2022-10-25T15:47:47.611Z,14.20
2022-10-25T15:50:17.066Z,14.20
2022-10-25T15:52:44.015Z,14.20
2022-10-25T15:55:22.253Z,14.10
2022-10-25T15:57:49.539Z,14.00
2022-10-25T16:00:24.138Z,14.00
2022-10-25T16:02:54.505Z,13.90
2022-10-25T16:05:22.699Z,13.80
2022-10-25T16:07:50.138Z,13.80
2022-10-25T16:10:17.637Z,13.70
2022-10-25T16:12:45.793Z,15.20
2022-10-25T16:15:16.498Z,13.60
2022-10-25T16:17:43.625Z,13.50
2022-10-25T16:20:20.236Z,13.40
2022-10-25T16:22:47.847Z,13.50
2022-10-25T16:25:15.211Z,13.40
2022-10-25T16:27:46.462Z,13.30
2022-10-25T16:30:17.733Z,13.20
2022-10-25T16:32:45.041Z,13.20
2022-10-25T16:35:13.867Z,13.20
2022-10-25T16:37:41.031Z,13.10
2022-10-25T16:40:08.484Z,13.30
2022-10-25T16:42:38.722Z,13.00
2022-10-25T16:45:17.526Z,13.60
2022-10-25T16:47:44.407Z,12.90
2022-10-25T16:50:11.378Z,12.90
2022-10-25T16:52:38.248Z,12.90
2022-10-25T16:55:05.593Z,12.80
2022-10-25T16:57:32.475Z,12.80
2022-10-25T16:59:59.377Z,13.50
2022-10-25T17:02:26.327Z,12.80
2022-10-25T17:04:53.751Z,12.80
2022-10-25T17:07:20.684Z,12.70
2022-10-25T17:09:47.630Z,12.80
2022-10-25T17:12:14.535Z,12.70
2022-10-25T17:14:41.427Z,12.70
2022-10-25T17:17:08.317Z,12.70
2022-10-25T17:19:35.729Z,12.70
2022-10-25T17:22:02.694Z,12.60
2022-10-25T17:24:33.033Z,12.60
2022-10-25T17:26:59.959Z,12.60
2022-10-25T17:29:26.939Z,12.70
2022-10-25T17:31:53.943Z,12.60
2022-10-25T17:34:20.895Z,13.70
2022-10-25T17:36:47.911Z,12.60
2022-10-25T17:39:16.884Z,12.60
2022-10-25T17:41:43.797Z,12.60
2022-10-25T17:44:11.290Z,12.60
2022-10-25T17:46:38.215Z,12.60
2022-10-25T17:49:06.020Z,12.60
2022-10-25T17:51:33.968Z,12.50
2022-10-25T17:54:00.860Z,12.60
2022-10-25T18:00:54.603Z,12.60
2022-10-25T18:03:21.451Z,12.90
2022-10-25T18:05:48.560Z,14.60
2022-10-25T18:08:15.758Z,12.70
2022-10-25T18:10:42.660Z,12.70
2022-10-25T18:13:09.583Z,13.60
2022-10-25T18:15:38.411Z,12.80
2022-10-25T18:18:05.339Z,12.90
2022-10-25T18:20:32.361Z,13.00
2022-10-25T18:22:59.284Z,13.20
2022-10-25T18:25:26.206Z,13.30
2022-10-25T18:27:53.057Z,13.20
2022-10-25T18:30:20.030Z,14.30
2022-10-25T18:32:46.922Z,13.40
2022-10-25T18:35:13.932Z,13.40
2022-10-25T18:37:40.776Z,13.50
2022-10-25T18:40:08.723Z,13.60
2022-10-25T18:42:35.955Z,13.70
2022-10-25T18:45:03.576Z,13.80
2022-10-25T18:47:30.409Z,13.90
2022-10-25T18:49:57.315Z,14.00
2022-10-25T18:52:24.738Z,14.10
2022-10-25T18:54:53.504Z,14.10
2022-10-25T18:57:20.452Z,14.10
2022-10-25T18:59:47.665Z,14.20
2022-10-25T19:02:14.659Z,14.20
2022-10-25T19:04:41.677Z,14.30
2022-10-25T19:07:08.528Z,14.30
2022-10-25T19:09:35.444Z,14.20
2022-10-25T19:12:02.311Z,14.30
2022-10-25T19:14:29.204Z,14.30
2022-10-25T19:16:56.127Z,14.30
2022-10-25T19:19:23.043Z,14.30
2022-10-25T19:21:49.932Z,14.20
2022-10-25T19:24:17.325Z,14.30
2022-10-25T19:26:44.915Z,14.30
2022-10-25T19:29:11.843Z,14.30
2022-10-25T19:31:38.731Z,14.40
2022-10-25T19:34:05.676Z,14.30
2022-10-25T19:36:32.680Z,14.40
2022-10-25T19:38:59.855Z,14.30
2022-10-25T19:41:26.785Z,14.40
2022-10-25T19:43:53.817Z,14.40
2022-10-25T19:46:20.682Z,13.30
2022-10-25T19:48:47.673Z,14.50
2022-10-25T19:51:16.349Z,14.50
2022-10-25T19:53:43.442Z,14.40
2022-10-25T19:56:14.937Z,14.40
2022-10-25T19:58:41.999Z,14.40
2022-10-25T20:01:13.723Z,14.40
2022-10-25T20:03:40.789Z,14.40
2022-10-25T20:06:17.621Z,14.30
2022-10-25T20:08:47.436Z,14.40
2022-10-25T20:11:14.612Z,14.40
2022-10-25T20:13:41.475Z,14.40
2022-10-25T20:16:08.808Z,14.40
2022-10-25T20:18:37.231Z,14.40
2022-10-25T20:21:06.158Z,14.30
2022-10-25T20:23:33.327Z,14.30
2022-10-25T20:26:00.231Z,14.30
2022-10-25T20:28:27.108Z,14.30
2022-10-25T20:30:54.034Z,14.30
2022-10-25T20:33:21.203Z,14.30
2022-10-25T20:35:48.167Z,14.20
2022-10-25T20:38:16.649Z,14.30
2022-10-25T20:40:45.297Z,14.20
2022-10-25T20:43:12.192Z,14.20
2022-10-25T20:45:41.448Z,14.10
2022-10-25T20:48:09.682Z,14.00
2022-10-25T20:50:36.664Z,14.10
2022-10-25T20:53:10.183Z,13.90
2022-10-25T20:55:38.010Z,13.90
2022-10-25T20:58:05.300Z,13.90
2022-10-25T21:00:32.971Z,14.00
2022-10-25T21:03:00.308Z,13.90
2022-10-25T21:05:27.409Z,13.90
2022-10-25T21:07:54.290Z,13.90
2022-10-25T21:10:21.227Z,14.20
2022-10-25T21:12:48.182Z,13.90
2022-10-25T21:15:15.129Z,13.80
2022-10-25T21:17:42.089Z,13.70
2022-10-25T21:20:10.646Z,13.80
2022-10-25T21:22:41.164Z,13.80
2022-10-25T21:25:08.783Z,13.80
2022-10-25T21:27:35.985Z,13.90
2022-10-25T21:30:03.221Z,14.00
2022-10-25T21:32:30.091Z,14.00
2022-10-25T21:34:57.007Z,14.10
2022-10-25T21:37:23.902Z,14.10
2022-10-25T21:39:50.800Z,14.10
2022-10-25T21:42:17.680Z,14.00
2022-10-25T21:44:44.596Z,14.70
2022-10-25T21:47:11.493Z,14.00
2022-10-25T21:49:38.395Z,13.90
2022-10-25T21:52:05.365Z,14.70
2022-10-25T21:54:36.057Z,14.10
2022-10-25T21:57:02.928Z,13.60
2022-10-25T21:59:29.812Z,13.50
2022-10-25T22:01:56.813Z,14.90
2022-10-25T22:04:27.938Z,13.40
2022-10-25T22:06:54.901Z,14.30
2022-10-25T22:09:21.786Z,13.40
2022-10-25T22:11:50.578Z,13.40
2022-10-25T22:14:17.487Z,13.40
2022-10-25T22:16:44.851Z,13.50
2022-10-25T22:19:16.576Z,13.70
2022-10-25T22:21:43.719Z,13.70
2022-10-25T22:24:11.080Z,13.80
2022-10-25T22:26:39.109Z,13.90
2022-10-25T22:29:05.990Z,14.00
2022-10-25T22:31:32.999Z,15.70
2022-10-25T22:34:01.430Z,14.20
2022-10-25T22:36:32.792Z,14.20
2022-10-25T22:38:59.788Z,14.30
2022-10-25T22:41:27.500Z,14.30
2022-10-25T22:43:54.422Z,14.40
2022-10-25T22:46:33.725Z,14.40
2022-10-25T22:49:04.737Z,14.50
2022-10-25T22:51:31.595Z,14.90
2022-10-25T22:53:58.519Z,14.60
2022-10-25T22:56:26.673Z,14.70
2022-10-25T22:58:55.230Z,14.80
2022-10-25T23:01:26.713Z,14.90
2022-10-25T23:03:54.774Z,14.90
2022-10-25T23:06:32.586Z,15.00
2022-10-25T23:09:01.376Z,15.00
2022-10-25T23:11:29.535Z,14.90
2022-10-25T23:13:59.822Z,14.80
2022-10-25T23:16:27.051Z,14.80
2022-10-25T23:18:53.989Z,14.80
2022-10-25T23:21:25.532Z,14.80
2022-10-25T23:23:53.231Z,14.80
2022-10-25T23:26:26.825Z,14.90
2022-10-25T23:28:54.541Z,14.90
2022-10-25T23:31:21.466Z,14.90
2022-10-25T23:33:51.062Z,14.90
2022-10-25T23:36:19.598Z,15.00
2022-10-25T23:38:47.102Z,15.00
2022-10-25T23:41:14.222Z,15.00
2022-10-25T23:43:41.163Z,15.00
2022-10-25T23:46:08.408Z,15.00
2022-10-25T23:48:35.390Z,15.10
2022-10-25T23:51:07.028Z,15.10
2022-10-25T23:53:34.155Z,15.10
2022-10-25T23:56:01.271Z,15.10
2022-10-25T23:58:28.258Z,15.10
